Time;durP1;ratioP1;P1;durP2;ratioP2;P2;SDS_P1;SDS_P2;PMS_P1;PMS_P2;Temp;Humidity;BMP_temperature;BMP_pressure;BME280_temperature;BME280_humidity;BME280_pressure;Samples;Min_cycle;Max_cycle;Signal;HPM_P1;HPM_P2
2022/07/12 00:01:33;;;;;;;6.15;4.92;;;24.00;82.10;;;;;;1905630;75;21022;-60
2022/07/12 00:04:03;;;;;;;6.47;5.22;;;24.00;81.90;;;;;;1906991;73;21034;-60
2022/07/12 00:06:32;;;;;;;5.83;5.08;;;24.00;81.90;;;;;;1921492;75;21041;-60
2022/07/12 00:09:02;;;;;;;11.75;5.10;;;24.00;81.90;;;;;;1921546;75;21014;-60
2022/07/12 00:11:31;;;;;;;8.40;6.15;;;24.00;81.80;;;;;;1921633;75;21018;-60
2022/07/12 00:14:00;;;;;;;6.33;5.50;;;24.00;81.60;;;;;;1921589;75;21447;-60
2022/07/12 00:16:29;;;;;;;5.22;4.72;;;24.00;81.30;;;;;;1921463;75;21017;-60
2022/07/12 00:18:58;;;;;;;4.78;4.30;;;24.00;81.40;;;;;;1921615;75;21162;-59
2022/07/12 00:21:28;;;;;;;6.65;4.97;;;24.00;81.60;;;;;;1921650;75;21095;-59
2022/07/12 00:23:57;;;;;;;5.50;4.95;;;24.00;81.40;;;;;;1921510;75;21001;-59
2022/07/12 00:26:27;;;;;;;5.72;4.35;;;24.00;81.20;;;;;;1921628;75;21038;-60
2022/07/12 00:28:57;;;;;;;7.35;4.00;;;24.00;80.70;;;;;;1921610;75;21083;-59
2022/07/12 00:31:27;;;;;;;6.70;3.95;;;23.90;80.40;;;;;;1921659;75;21053;-60
2022/07/12 00:33:56;;;;;;;4.87;4.37;;;23.90;80.20;;;;;;1921585;75;21021;-60
2022/07/12 00:36:25;;;;;;;4.30;3.90;;;23.90;80.20;;;;;;1921519;75;21126;-60
2022/07/12 00:38:56;;;;;;;4.47;4.08;;;23.80;80.20;;;;;;1921627;75;21005;-60
2022/07/12 00:41:25;;;;;;;5.72;4.15;;;23.90;80.10;;;;;;1921551;75;21128;-60
2022/07/12 00:43:54;;;;;;;5.08;3.70;;;23.90;80.00;;;;;;1921641;75;21004;-60
2022/07/12 00:46:25;;;;;;;5.30;4.00;;;23.90;79.90;;;;;;1921571;74;21087;-60
2022/07/12 00:48:55;;;;;;;7.53;3.60;;;23.90;79.90;;;;;;1921651;75;21120;-60
2022/07/12 00:51:37;;;;;;;5.35;3.65;;;23.90;79.80;;;;;;1921700;75;21088;-60
2022/07/12 00:54:20;;;;;;;5.67;3.83;;;23.90;80.00;;;;;;1840182;77;21553;-61
2022/07/12 00:56:49;;;;;;;7.60;3.98;;;23.90;79.70;;;;;;1840115;77;21047;-61
2022/07/12 00:59:19;;;;;;;5.62;4.05;;;23.90;79.80;;;;;;1840000;78;21043;-61
2022/07/12 01:01:48;;;;;;;5.67;4.20;;;23.90;79.70;;;;;;1840003;77;21095;-61
2022/07/12 01:04:18;;;;;;;8.05;3.98;;;23.90;79.60;;;;;;1840175;78;21243;-61
2022/07/12 01:06:47;;;;;;;6.12;4.05;;;23.90;79.70;;;;;;1840032;78;21060;-61
2022/07/12 01:09:16;;;;;;;6.40;4.00;;;23.90;79.70;;;;;;1840080;77;21028;-61
2022/07/12 01:11:46;;;;;;;7.45;4.10;;;23.90;79.70;;;;;;1839992;77;21462;-62
2022/07/12 01:14:16;;;;;;;7.28;4.08;;;23.90;79.80;;;;;;1840091;77;21126;-62
2022/07/12 01:16:45;;;;;;;7.28;4.60;;;23.80;79.80;;;;;;1840047;78;21110;-62
2022/07/12 01:19:19;;;;;;;6.33;4.20;;;23.80;79.90;;;;;;1839954;78;21106;-61
2022/07/12 01:21:51;;;;;;;6.05;4.40;;;23.80;79.60;;;;;;1840006;77;21035;-61
2022/07/12 01:24:21;;;;;;;5.42;3.92;;;23.80;79.50;;;;;;1840095;78;21520;-61
2022/07/12 01:26:51;;;;;;;5.67;5.17;;;23.80;79.80;;;;;;1840114;78;21035;-62
2022/07/12 01:29:21;;;;;;;4.78;4.28;;;23.70;80.00;;;;;;1840154;77;21109;-62
2022/07/12 01:31:51;;;;;;;8.03;4.47;;;23.70;80.20;;;;;;1840121;77;21051;-62
2022/07/12 01:34:21;;;;;;;8.60;4.40;;;23.70;80.20;;;;;;1840191;78;21020;-62
2022/07/12 01:36:51;;;;;;;4.75;4.22;;;23.70;79.90;;;;;;1840143;78;21068;-62
2022/07/12 01:39:20;;;;;;;8.20;4.22;;;23.70;79.90;;;;;;1840188;78;21027;-62
2022/07/12 01:41:49;;;;;;;8.25;4.17;;;23.70;79.90;;;;;;1840169;78;21198;-62
2022/07/12 01:44:19;;;;;;;9.25;4.10;;;23.60;79.70;;;;;;1840334;78;21109;-62
2022/07/12 01:46:48;;;;;;;7.33;4.50;;;23.60;79.90;;;;;;1840213;78;21085;-62
2022/07/12 01:49:17;;;;;;;5.60;4.50;;;23.50;79.70;;;;;;1840228;77;21336;-62
2022/07/12 01:51:47;;;;;;;7.37;4.20;;;23.50;79.80;;;;;;1840183;78;21016;-62
2022/07/12 01:54:16;;;;;;;5.00;4.03;;;23.50;79.70;;;;;;1838214;77;21059;-62
2022/07/12 01:56:45;;;;;;;5.58;3.75;;;23.50;79.90;;;;;;1837420;77;21182;-62
2022/07/12 01:59:15;;;;;;;4.55;3.83;;;23.50;80.10;;;;;;1837459;78;21420;-62
2022/07/12 02:01:46;;;;;;;5.15;3.55;;;23.50;80.00;;;;;;1837382;77;21039;-62
2022/07/12 02:04:19;;;;;;;5.83;4.15;;;23.50;79.90;;;;;;1837544;77;21066;-61
2022/07/12 02:06:49;;;;;;;11.03;4.90;;;23.40;79.80;;;;;;1837514;78;21094;-62
2022/07/12 02:09:18;;;;;;;8.30;4.00;;;23.40;79.70;;;;;;1837432;78;21145;-62
2022/07/12 02:11:48;;;;;;;4.12;3.55;;;23.50;79.90;;;;;;1837441;77;21362;-62
2022/07/12 02:14:18;;;;;;;7.55;4.03;;;23.50;80.00;;;;;;1837396;78;21062;-62
2022/07/12 02:16:47;;;;;;;7.72;4.80;;;23.50;79.70;;;;;;1837419;77;21105;-62
2022/07/12 02:19:17;;;;;;;6.05;4.33;;;23.50;79.70;;;;;;1837479;77;21046;-61
2022/07/12 02:21:46;;;;;;;6.80;3.70;;;23.50;79.60;;;;;;1837600;77;21191;-61
2022/07/12 02:24:16;;;;;;;6.55;3.92;;;23.50;79.10;;;;;;1837449;77;21031;-62
2022/07/12 02:26:45;;;;;;;4.00;3.60;;;23.50;79.30;;;;;;1837544;77;21054;-62
2022/07/12 02:29:15;;;;;;;4.78;3.58;;;23.40;79.30;;;;;;1837491;77;21067;-62
2022/07/12 02:31:44;;;;;;;6.10;4.50;;;23.40;79.40;;;;;;1837444;78;21105;-62
2022/07/12 02:34:13;;;;;;;7.70;3.98;;;23.40;79.10;;;;;;1837369;78;21046;-62
2022/07/12 02:36:43;;;;;;;12.35;4.70;;;23.40;79.20;;;;;;1837443;77;21026;-62
2022/07/12 02:39:12;;;;;;;11.20;4.83;;;23.40;79.20;;;;;;1837442;78;21112;-62
2022/07/12 02:41:41;;;;;;;4.45;3.90;;;23.50;79.20;;;;;;1837472;77;21094;-61
2022/07/12 02:44:11;;;;;;;10.40;4.37;;;23.50;79.30;;;;;;1837414;77;21053;-61
2022/07/12 02:46:40;;;;;;;5.97;3.80;;;23.60;79.00;;;;;;1837582;77;21050;-61
2022/07/12 02:49:09;;;;;;;9.55;3.60;;;23.70;78.80;;;;;;1837436;78;21034;-61
2022/07/12 02:51:38;;;;;;;14.68;5.17;;;23.80;78.50;;;;;;1837578;77;21090;-61
2022/07/12 02:54:08;;;;;;;10.43;4.28;;;23.90;78.10;;;;;;1813945;77;21151;-61
2022/07/12 02:56:37;;;;;;;10.45;3.92;;;24.00;77.60;;;;;;1786447;79;21054;-61
2022/07/12 02:59:07;;;;;;;5.75;2.90;;;24.10;77.40;;;;;;1786529;80;21049;-61
2022/07/12 03:01:36;;;;;;;5.67;2.92;;;24.10;77.20;;;;;;1786425;79;21099;-61
2022/07/12 03:04:06;;;;;;;5.67;2.90;;;24.10;76.90;;;;;;1786585;80;21056;-61
2022/07/12 03:06:35;;;;;;;5.12;3.08;;;24.10;76.60;;;;;;1786463;80;21016;-61
2022/07/12 03:09:04;;;;;;;4.92;2.80;;;24.20;76.50;;;;;;1786510;80;21123;-61
2022/07/12 03:11:34;;;;;;;11.60;2.92;;;24.20;76.20;;;;;;1786530;80;21049;-61
2022/07/12 03:14:04;;;;;;;5.90;2.90;;;24.30;75.90;;;;;;1786436;80;21061;-61
2022/07/12 03:16:33;;;;;;;12.93;3.50;;;24.40;75.50;;;;;;1786543;80;21099;-61
2022/07/12 03:19:03;;;;;;;7.20;2.52;;;24.50;75.30;;;;;;1786523;80;21095;-61
2022/07/12 03:21:32;;;;;;;3.27;2.77;;;24.50;75.10;;;;;;1786414;79;21207;-61
2022/07/12 03:24:02;;;;;;;8.38;3.10;;;24.60;75.00;;;;;;1786540;79;21048;-60
2022/07/12 03:26:31;;;;;;;5.05;2.80;;;24.60;74.50;;;;;;1786503;80;21037;-61
2022/07/12 03:29:02;;;;;;;58.95;6.70;;;24.70;74.30;;;;;;1785634;79;21067;-61
2022/07/12 03:31:32;;;;;;;5.85;2.87;;;24.70;74.10;;;;;;1786448;79;21100;-61
2022/07/12 03:34:01;;;;;;;9.38;2.90;;;24.80;74.10;;;;;;1786461;80;21025;-61
2022/07/12 03:36:31;;;;;;;14.98;3.17;;;24.80;73.90;;;;;;1786475;79;21045;-61
2022/07/12 03:39:00;;;;;;;4.05;2.20;;;24.90;73.40;;;;;;1786411;80;21036;-61
2022/07/12 03:41:29;;;;;;;10.30;3.30;;;25.00;72.30;;;;;;1786438;80;21076;-61
2022/07/12 03:43:59;;;;;;;5.90;2.47;;;25.00;72.20;;;;;;1786583;80;21072;-61
2022/07/12 03:46:28;;;;;;;7.67;2.65;;;25.10;72.20;;;;;;1786436;80;21104;-60
2022/07/12 03:48:58;;;;;;;3.27;2.10;;;25.10;72.10;;;;;;1786423;80;21122;-61
2022/07/12 03:51:27;;;;;;;5.97;2.45;;;25.20;71.90;;;;;;1786557;80;21052;-60
2022/07/12 03:53:56;;;;;;;5.87;2.35;;;25.20;71.70;;;;;;1787493;77;21037;-60
2022/07/12 03:59:13;;;;;;;5.15;2.17;;;25.40;71.00;;;;;;1797677;78;21056;-60
2022/07/12 04:01:43;;;;;;;4.97;2.40;;;25.50;70.50;;;;;;1797476;79;21040;-60
2022/07/12 04:04:12;;;;;;;3.70;2.17;;;25.50;70.20;;;;;;1797576;78;21052;-61
2022/07/12 04:06:41;;;;;;;4.70;1.92;;;25.60;70.10;;;;;;1797539;80;21115;-61
2022/07/12 04:09:11;;;;;;;3.20;2.33;;;25.70;70.00;;;;;;1797614;79;21476;-61
2022/07/12 04:11:40;;;;;;;4.67;2.60;;;25.80;69.50;;;;;;1797670;79;21056;-60
2022/07/12 04:14:09;;;;;;;9.73;2.37;;;25.90;69.40;;;;;;1797622;80;21114;-60
2022/07/12 04:16:39;;;;;;;16.20;3.05;;;25.90;69.10;;;;;;1797668;80;21173;-61
2022/07/12 04:19:11;;;;;;;5.28;2.17;;;26.00;68.40;;;;;;1797587;80;21060;-61
2022/07/12 04:21:41;;;;;;;5.10;2.37;;;26.10;67.50;;;;;;1797582;78;21134;-61
2022/07/12 04:24:10;;;;;;;5.37;2.10;;;26.10;66.70;;;;;;1797677;79;21052;-61
2022/07/12 04:26:39;;;;;;;5.87;2.30;;;26.00;66.60;;;;;;1797690;79;21107;-60
2022/07/12 04:29:08;;;;;;;3.58;1.80;;;26.00;66.50;;;;;;1797591;79;21031;-60
2022/07/12 04:31:38;;;;;;;4.37;2.17;;;26.10;66.60;;;;;;1797540;79;21044;-60
2022/07/12 04:34:07;;;;;;;5.05;2.40;;;26.20;66.50;;;;;;1797657;80;21047;-60
2022/07/12 04:36:37;;;;;;;5.28;3.00;;;26.20;66.30;;;;;;1797559;80;21080;-61
2022/07/12 04:39:06;;;;;;;8.53;3.08;;;26.30;65.20;;;;;;1797659;78;21118;-60
2022/07/12 04:41:41;;;;;;;6.40;3.87;;;26.20;64.90;;;;;;1797559;79;21126;-61
2022/07/12 04:44:29;;;;;;;3.15;2.22;;;26.30;65.30;;;;;;1828686;78;21172;-60
2022/07/12 04:46:59;;;;;;;6.05;2.00;;;26.20;65.20;;;;;;1861162;76;21137;-61
2022/07/12 04:49:28;;;;;;;2.75;2.08;;;26.20;65.10;;;;;;1861197;77;21021;-61
2022/07/12 04:51:57;;;;;;;18.35;3.33;;;26.30;65.00;;;;;;1861093;76;21072;-61
2022/07/12 04:54:27;;;;;;;10.35;4.20;;;26.40;65.00;;;;;;1861078;77;21101;-60
2022/07/12 04:57:00;;;;;;;8.75;3.75;;;26.40;64.80;;;;;;1861179;77;21050;-61
2022/07/12 04:59:34;;;;;;;8.38;3.40;;;26.40;64.30;;;;;;1868970;76;21179;-60
2022/07/12 05:02:04;;;;;;;5.37;2.35;;;26.40;64.30;;;;;;1870867;75;21046;-60
2022/07/12 05:04:34;;;;;;;7.58;2.70;;;26.40;63.60;;;;;;1870817;76;21019;-60
2022/07/12 05:07:03;;;;;;;10.25;4.53;;;26.50;63.90;;;;;;1870972;77;21120;-60
2022/07/12 05:09:33;;;;;;;8.43;3.60;;;26.50;64.10;;;;;;1870895;76;21015;-60
2022/07/12 05:12:02;;;;;;;9.13;2.62;;;26.60;63.90;;;;;;1870976;76;21107;-60
2022/07/12 05:14:32;;;;;;;7.47;3.27;;;26.70;64.20;;;;;;1870649;75;21011;-60
2022/07/12 05:17:01;;;;;;;6.67;2.60;;;26.70;63.80;;;;;;1871033;77;21131;-60
2022/07/12 05:19:31;;;;;;;14.03;5.25;;;26.80;63.60;;;;;;1870875;77;21015;-60
2022/07/12 05:22:00;;;;;;;10.03;4.53;;;26.90;63.30;;;;;;1870787;76;21108;-60
2022/07/12 05:24:29;;;;;;;12.60;4.60;;;27.00;63.30;;;;;;1870996;76;21109;-60
2022/07/12 05:26:59;;;;;;;5.95;2.95;;;27.00;63.50;;;;;;1870925;76;21425;-60
2022/07/12 05:29:28;;;;;;;4.53;2.10;;;27.10;63.40;;;;;;1870914;77;21018;-60
2022/07/12 05:31:58;;;;;;;19.55;4.35;;;27.10;62.80;;;;;;1870835;77;21164;-60
2022/07/12 05:34:27;;;;;;;4.40;2.33;;;27.10;63.30;;;;;;1870820;76;21392;-60
2022/07/12 05:36:56;;;;;;;5.37;2.52;;;27.20;62.50;;;;;;1870853;77;21038;-60
2022/07/12 05:39:26;;;;;;;4.42;2.22;;;27.20;62.00;;;;;;1870824;76;21032;-60
2022/07/12 05:41:55;;;;;;;7.70;2.65;;;27.20;61.60;;;;;;1870809;76;21038;-60
2022/07/12 05:44:24;;;;;;;9.18;2.92;;;27.20;62.40;;;;;;1870783;76;20991;-61
2022/07/12 05:46:54;;;;;;;8.50;2.95;;;27.30;62.70;;;;;;1870885;75;21116;-61
2022/07/12 05:49:23;;;;;;;8.55;2.35;;;27.40;62.10;;;;;;1870794;75;21023;-60
2022/07/12 05:54:41;;;;;;;24.37;8.35;;;27.40;62.10;;;;;;1830672;77;21099;-61
2022/07/12 05:57:11;;;;;;;6.08;2.50;;;27.50;62.10;;;;;;1886462;75;21040;-61
2022/07/12 05:59:40;;;;;;;3.42;2.10;;;27.50;62.30;;;;;;1886452;76;21084;-61
2022/07/12 06:02:09;;;;;;;4.47;2.17;;;27.50;62.00;;;;;;1886374;76;21091;-60
2022/07/12 06:04:39;;;;;;;5.65;2.02;;;27.60;61.60;;;;;;1886495;76;21171;-60
2022/07/12 06:07:09;;;;;;;4.08;2.08;;;27.70;61.40;;;;;;1886455;76;21025;-60
2022/07/12 06:09:38;;;;;;;4.30;2.20;;;27.70;60.70;;;;;;1886487;76;21096;-60
2022/07/12 06:12:08;;;;;;;7.28;2.20;;;27.60;61.00;;;;;;1886590;76;21013;-60
2022/07/12 06:14:37;;;;;;;4.22;2.10;;;27.70;60.00;;;;;;1886592;76;21191;-60
2022/07/12 06:17:07;;;;;;;6.55;1.77;;;27.70;60.30;;;;;;1886547;76;21121;-60
2022/07/12 06:19:36;;;;;;;4.47;2.37;;;27.80;60.70;;;;;;1886611;76;21138;-60
2022/07/12 06:22:06;;;;;;;5.15;2.67;;;27.90;60.50;;;;;;1886599;76;21064;-60
2022/07/12 06:24:35;;;;;;;3.42;2.10;;;28.00;60.20;;;;;;1886491;76;21104;-60
2022/07/12 06:27:05;;;;;;;6.03;2.42;;;28.00;60.20;;;;;;1886624;76;21024;-60
2022/07/12 06:29:47;;;;;;;7.40;2.20;;;28.00;60.50;;;;;;1886493;76;21185;-60
2022/07/12 06:32:17;;;;;;;6.25;2.60;;;28.00;59.50;;;;;;1917686;75;21073;-60
2022/07/12 06:34:46;;;;;;;2.70;1.65;;;27.90;59.60;;;;;;1917352;74;21018;-61
2022/07/12 06:37:38;;;;;;;5.30;2.02;;;28.00;59.90;;;;;;1917707;75;21092;-61
2022/07/12 06:43:01;;;;;;;6.85;2.08;;;28.20;59.40;;;;;;1891589;76;21124;-60
2022/07/12 06:45:30;;;;;;;6.65;1.82;;;28.20;59.30;;;;;;1916727;75;21066;-61
2022/07/12 06:47:59;;;;;;;5.85;2.10;;;28.30;59.30;;;;;;1882407;76;21026;-61
2022/07/12 06:50:28;;;;;;;4.50;2.10;;;28.40;59.10;;;;;;1894959;76;21039;-61
2022/07/12 06:52:58;;;;;;;4.95;1.92;;;28.60;58.80;;;;;;1916656;74;21039;-61
2022/07/12 06:55:28;;;;;;;5.65;2.10;;;28.60;58.50;;;;;;1882251;76;21121;-60
2022/07/12 06:57:57;;;;;;;8.78;1.90;;;28.60;58.30;;;;;;1894904;74;21074;-60
2022/07/12 07:00:26;;;;;;;5.87;2.20;;;28.60;58.50;;;;;;1916820;75;21058;-61
2022/07/12 07:02:56;;;;;;;6.97;2.27;;;28.70;58.20;;;;;;1882206;76;21050;-61
2022/07/12 07:05:25;;;;;;;4.78;2.00;;;28.70;58.30;;;;;;1894967;76;21012;-61
2022/07/12 07:07:55;;;;;;;4.60;2.10;;;28.70;57.90;;;;;;1916600;75;21070;-60
2022/07/12 07:10:24;;;;;;;5.42;2.80;;;28.70;58.20;;;;;;1882320;76;21043;-61
2022/07/12 07:12:53;;;;;;;4.72;2.50;;;28.80;58.50;;;;;;1894907;76;21025;-61
2022/07/12 07:15:23;;;;;;;11.15;3.27;;;28.90;58.90;;;;;;1916517;75;21113;-61
2022/07/12 07:17:52;;;;;;;8.63;3.27;;;29.00;57.90;;;;;;1882172;76;21018;-60
2022/07/12 07:20:22;;;;;;;3.10;1.90;;;29.20;57.80;;;;;;1894940;74;21084;-61
2022/07/12 07:22:51;;;;;;;2.98;2.10;;;29.30;57.40;;;;;;1916614;75;21050;-63
2022/07/12 09:41:00;;;;;;;2.75;1.60;;;30.30;50.20;;;;;;1956708;72;25786;-66
2022/07/12 09:43:30;;;;;;;5.85;1.85;;;30.40;52.00;;;;;;1916781;75;21512;-66
2022/07/12 09:46:00;;;;;;;3.85;1.60;;;30.50;51.00;;;;;;1916823;75;21065;-72
2022/07/12 09:48:30;;;;;;;3.85;2.00;;;30.60;50.00;;;;;;1917066;75;21070;-65
2022/07/12 09:51:01;;;;;;;2.58;2.02;;;30.50;49.30;;;;;;1917051;75;21070;-66
2022/07/12 09:53:33;;;;;;;6.35;3.10;;;30.50;49.20;;;;;;1917165;75;20999;-66
2022/07/12 09:56:08;;;;;;;2.00;1.80;;;30.60;49.30;;;;;;1916966;74;21096;-65
2022/07/12 09:58:37;;;;;;;;;;;30.60;49.00;;;;;;1920382;75;21074;-67
2022/07/12 10:01:08;;;;;;;7.17;2.20;;;30.60;48.60;;;;;;1909332;75;20144;-59
2022/07/12 10:03:39;;;;;;;4.20;2.70;;;30.50;48.40;;;;;;1917525;75;21093;-65
2022/07/12 10:06:09;;;;;;;9.48;2.10;;;30.40;48.60;;;;;;1917555;75;21074;-65
2022/07/12 10:08:38;;;;;;;6.45;1.90;;;30.40;48.60;;;;;;1917617;74;20999;-64
2022/07/12 10:11:08;;;;;;;4.95;1.75;;;30.30;49.20;;;;;;1917583;74;21406;-64
2022/07/12 10:13:38;;;;;;;3.77;1.80;;;30.30;49.00;;;;;;1917676;74;21066;-65
2022/07/12 10:16:10;;;;;;;3.80;2.10;;;30.30;48.70;;;;;;1903696;75;21166;-69
2022/07/12 10:18:39;;;;;;;5.47;2.00;;;30.20;48.30;;;;;;1884842;75;21531;-68
2022/07/12 10:21:24;;;;;;;3.37;1.67;;;30.20;48.70;;;;;;1884990;76;21001;-69
2022/07/12 10:23:52;;;;;;;;;;;30.10;48.50;;;;;;1887958;75;21083;-63
2022/07/12 10:26:26;;;;;;;17.00;2.95;;;30.10;47.50;;;;;;1884853;76;20101;-64
2022/07/12 10:29:06;;;;;;;1.75;1.40;;;30.20;48.40;;;;;;1877754;76;21099;-62
2022/07/12 10:31:37;;;;;;;2.95;2.00;;;30.30;47.90;;;;;;1885166;75;21053;-63
2022/07/12 10:34:15;;;;;;;12.75;2.20;;;30.30;47.50;;;;;;1885018;75;21147;-62
2022/07/12 10:37:00;;;;;;;1.85;1.60;;;30.40;48.10;;;;;;1885021;76;21023;-62
2022/07/12 10:39:30;;;;;;;3.27;1.82;;;30.60;48.00;;;;;;1885789;75;21052;-62
2022/07/12 10:42:11;;;;;;;6.42;1.70;;;30.80;48.00;;;;;;1891615;76;21051;-66
2022/07/12 10:44:44;;;;;;;7.45;2.37;;;30.80;46.10;;;;;;1891499;76;21075;-64
2022/07/12 10:47:15;;;;;;;4.42;1.90;;;30.70;46.40;;;;;;1891398;75;21522;-64
2022/07/12 10:49:49;;;;;;;7.55;2.22;;;30.60;46.60;;;;;;1891608;76;21156;-64
2022/07/12 10:52:27;;;;;;;3.83;2.00;;;30.60;46.80;;;;;;1891064;75;21028;-63
2022/07/12 10:55:01;;;;;;;3.40;2.42;;;30.60;46.90;;;;;;1890599;76;21032;-63
2022/07/12 10:57:44;;;;;;;12.82;3.25;;;30.50;46.80;;;;;;1890861;76;21090;-65
2022/07/12 11:00:15;;;;;;;12.18;2.77;;;30.50;47.00;;;;;;1891223;76;21094;-69
2022/07/12 11:02:44;;;;;;;4.15;2.85;;;30.40;47.20;;;;;;1891556;76;21098;-67
2022/07/12 11:05:24;;;;;;;4.30;1.80;;;30.30;47.70;;;;;;1891412;75;21024;-67
2022/07/12 11:07:55;;;;;;;5.72;2.55;;;30.30;48.10;;;;;;1856036;76;21479;-68
2022/07/12 11:10:25;;;;;;;6.00;1.92;;;30.30;48.50;;;;;;1863475;76;21046;-67
2022/07/12 11:12:55;;;;;;;23.77;4.30;;;30.30;48.60;;;;;;1863124;76;21448;-68
2022/07/12 11:15:25;;;;;;;3.80;1.80;;;30.30;49.40;;;;;;1863272;77;21045;-67
2022/07/12 11:17:54;;;;;;;5.30;1.70;;;30.40;48.30;;;;;;1863184;76;21110;-67
2022/07/12 11:20:27;;;;;;;4.17;2.10;;;30.40;47.90;;;;;;1863164;76;21017;-67
2022/07/12 11:22:56;;;;;;;2.40;1.87;;;30.50;47.40;;;;;;1863302;77;21510;-68
2022/07/12 11:25:26;;;;;;;3.87;1.80;;;30.50;47.30;;;;;;1863178;76;21092;-66
2022/07/12 11:27:55;;;;;;;2.87;1.80;;;30.60;46.80;;;;;;1863384;76;21041;-66
2022/07/12 11:30:25;;;;;;;2.67;1.87;;;30.60;46.80;;;;;;1863091;76;21091;-66
2022/07/12 11:32:55;;;;;;;5.08;2.00;;;30.60;46.70;;;;;;1863289;77;21053;-67
2022/07/12 11:35:29;;;;;;;10.43;2.42;;;30.70;46.30;;;;;;1863273;76;21031;-66
2022/07/12 11:37:57;;;;;;;4.03;2.10;;;30.70;46.40;;;;;;1862640;76;21131;-66
2022/07/12 11:40:30;;;;;;;8.20;2.70;;;30.70;46.30;;;;;;1863234;76;21077;-66
2022/07/12 11:43:02;;;;;;;3.10;1.72;;;30.90;46.10;;;;;;1863470;77;21091;-67
2022/07/12 11:45:32;;;;;;;3.60;1.85;;;31.00;45.30;;;;;;1863078;76;21005;-68
2022/07/12 11:48:03;;;;;;;12.40;2.65;;;31.00;45.10;;;;;;1863270;77;21081;-67
2022/07/12 11:50:34;;;;;;;3.77;2.42;;;30.90;45.40;;;;;;1863166;76;21440;-67
2022/07/12 11:53:04;;;;;;;2.05;1.55;;;30.70;45.90;;;;;;1863142;77;21053;-68
2022/07/12 11:55:34;;;;;;;3.25;1.90;;;30.60;45.90;;;;;;1863006;76;21037;-67
2022/07/12 11:58:06;;;;;;;2.92;1.82;;;30.60;46.10;;;;;;1862649;76;21548;-66
2022/07/12 12:00:36;;;;;;;5.30;1.92;;;30.60;46.30;;;;;;1863131;76;21324;-66
2022/07/12 12:03:05;;;;;;;3.30;1.80;;;30.50;49.40;;;;;;1863061;76;21095;-67
2022/07/12 12:05:36;;;;;;;2.95;2.10;;;30.20;51.80;;;;;;1863278;77;21083;-67
2022/07/12 12:08:07;;;;;;;5.58;2.05;;;30.00;52.50;;;;;;1863072;76;21056;-67
2022/07/12 12:10:37;;;;;;;3.25;1.87;;;29.90;52.90;;;;;;1863254;76;21499;-67
2022/07/12 12:13:07;;;;;;;2.65;2.05;;;29.80;52.80;;;;;;1863275;77;21076;-67
2022/07/12 12:15:37;;;;;;;2.40;2.20;;;29.80;53.60;;;;;;1862968;76;21511;-67
2022/07/12 12:18:07;;;;;;;2.52;2.10;;;29.70;53.70;;;;;;1863234;76;21304;-67
2022/07/12 12:20:45;;;;;;;4.33;2.35;;;29.70;54.00;;;;;;1863202;76;21075;-67
2022/07/12 12:23:20;;;;;;;1.95;1.70;;;29.80;53.50;;;;;;1863119;76;21084;-68
2022/07/12 12:25:50;;;;;;;3.05;2.20;;;29.90;53.10;;;;;;1863188;76;21029;-68
2022/07/12 12:28:19;;;;;;;3.42;2.27;;;29.80;53.10;;;;;;1863130;76;21033;-67
2022/07/12 12:30:54;;;;;;;2.80;2.10;;;29.60;53.50;;;;;;1863068;76;21112;-67
2022/07/12 12:33:44;;;;;;;3.42;1.90;;;29.70;54.00;;;;;;1863061;76;21033;-66
2022/07/12 12:36:18;;;;;;;7.85;2.80;;;29.70;53.90;;;;;;1863103;76;21029;-67
2022/07/12 12:38:48;;;;;;;2.80;2.12;;;29.80;53.70;;;;;;1863172;76;21094;-67
2022/07/12 12:41:19;;;;;;;5.08;2.40;;;29.90;53.30;;;;;;1863163;76;21111;-68
2022/07/12 12:43:49;;;;;;;4.15;1.90;;;30.00;53.40;;;;;;1863044;76;21096;-67
2022/07/12 12:46:18;;;;;;;3.50;1.98;;;30.10;52.30;;;;;;1863064;76;21111;-67
2022/07/12 12:48:48;;;;;;;2.92;2.02;;;30.10;52.60;;;;;;1863020;76;21005;-67
2022/07/12 12:51:18;;;;;;;4.75;2.50;;;30.00;52.60;;;;;;1863059;76;21185;-67
2022/07/12 12:53:49;;;;;;;3.83;1.95;;;30.00;53.80;;;;;;1862950;76;21104;-69
2022/07/12 12:56:20;;;;;;;5.62;2.05;;;30.00;53.60;;;;;;1862488;76;21060;-69
2022/07/12 12:58:51;;;;;;;6.25;1.82;;;30.00;53.80;;;;;;1862994;77;21025;-71
2022/07/12 13:01:20;;;;;;;2.27;1.82;;;30.00;53.80;;;;;;1863152;77;21013;-69
2022/07/12 13:03:50;;;;;;;4.35;2.22;;;30.10;52.90;;;;;;1863037;76;21021;-70
2022/07/12 13:06:21;;;;;;;2.35;1.90;;;30.10;52.60;;;;;;1863095;77;21033;-69
2022/07/12 13:08:50;;;;;;;2.98;1.70;;;30.10;52.50;;;;;;1862423;75;21068;-70
2022/07/12 13:11:22;;;;;;;4.30;2.15;;;30.10;52.60;;;;;;1863335;76;21037;-71
2022/07/12 13:13:50;;;;;;;7.37;2.70;;;30.10;53.10;;;;;;1863253;77;21049;-69
2022/07/12 13:16:20;;;;;;;3.90;1.90;;;30.10;53.50;;;;;;1863417;76;21126;-69
2022/07/12 13:18:49;;;;;;;3.25;1.90;;;30.30;52.70;;;;;;1863340;77;21029;-68
2022/07/12 13:21:19;;;;;;;4.17;1.92;;;30.30;52.10;;;;;;1863322;76;21099;-67
2022/07/12 13:23:48;;;;;;;5.50;2.25;;;30.30;52.30;;;;;;1863446;76;21029;-69
2022/07/12 13:26:17;;;;;;;3.52;1.98;;;30.20;52.80;;;;;;1863498;76;21061;-67
2022/07/12 13:28:47;;;;;;;4.75;1.90;;;30.30;52.40;;;;;;1863349;76;21154;-69
2022/07/12 13:31:16;;;;;;;4.05;2.83;;;30.40;52.30;;;;;;1863366;77;21091;-69
2022/07/12 13:33:45;;;;;;;8.50;2.22;;;30.40;51.90;;;;;;1863326;76;21033;-70
2022/07/12 13:36:14;;;;;;;2.62;1.90;;;30.30;52.20;;;;;;1863482;76;21013;-69
2022/07/12 13:38:44;;;;;;;5.12;2.22;;;30.10;52.40;;;;;;1863448;76;21537;-67
2022/07/12 13:41:13;;;;;;;9.65;2.45;;;29.90;52.10;;;;;;1863532;76;21025;-69
2022/07/12 13:43:42;;;;;;;3.30;2.10;;;29.80;52.90;;;;;;1863548;77;20997;-69
2022/07/12 13:46:12;;;;;;;5.00;2.17;;;29.70;52.80;;;;;;1863458;76;21111;-68
2022/07/12 13:48:41;;;;;;;3.20;1.82;;;29.70;52.80;;;;;;1863408;76;21048;-67
2022/07/12 13:51:11;;;;;;;2.50;1.90;;;29.80;52.90;;;;;;1863365;76;21037;-67
2022/07/12 13:53:40;;;;;;;5.37;1.75;;;29.80;52.20;;;;;;1863314;76;21033;-67
2022/07/12 13:56:10;;;;;;;4.20;2.15;;;29.80;52.50;;;;;;1863384;77;21103;-67
2022/07/12 13:58:39;;;;;;;4.12;2.10;;;29.80;53.00;;;;;;1863392;76;21553;-67
2022/07/12 14:01:09;;;;;;;5.92;2.60;;;29.90;52.60;;;;;;1863365;76;21159;-68
2022/07/12 14:03:38;;;;;;;4.22;1.87;;;29.90;52.40;;;;;;1863255;76;21045;-68
2022/07/12 14:08:47;;;;;;;3.90;2.10;;;29.90;52.30;;;;;;1893520;75;21067;-67
2022/07/12 14:11:18;;;;;;;5.92;2.60;;;30.00;53.30;;;;;;1893412;75;21028;-66
2022/07/12 14:13:48;;;;;;;3.75;1.98;;;30.00;53.10;;;;;;1860794;76;21094;-67
2022/07/12 14:16:18;;;;;;;6.10;2.50;;;29.90;53.30;;;;;;1866987;77;21027;-67
2022/07/12 14:18:48;;;;;;;3.30;1.95;;;30.00;53.00;;;;;;1867101;77;21035;-68
2022/07/12 14:21:17;;;;;;;2.87;1.95;;;30.00;52.80;;;;;;1867065;77;21051;-68
2022/07/12 14:23:46;;;;;;;5.28;2.10;;;30.10;52.50;;;;;;1866995;77;21043;-68
2022/07/12 14:26:16;;;;;;;3.22;1.70;;;30.10;52.50;;;;;;1867203;77;21512;-68
2022/07/12 14:28:45;;;;;;;3.05;2.02;;;30.10;52.50;;;;;;1867111;77;21031;-67
2022/07/12 14:31:15;;;;;;;4.17;2.30;;;30.10;52.40;;;;;;1867190;77;21102;-67
2022/07/12 14:33:45;;;;;;;1.70;1.50;;;30.00;52.40;;;;;;1867124;77;21032;-67
2022/07/12 14:36:14;;;;;;;6.67;3.12;;;30.00;52.50;;;;;;1867087;77;21051;-67
2022/07/12 14:38:43;;;;;;;5.25;1.90;;;30.00;52.50;;;;;;1867010;77;21083;-67
2022/07/12 14:41:14;;;;;;;3.52;2.00;;;30.00;52.50;;;;;;1867005;77;21086;-67
2022/07/12 14:43:43;;;;;;;2.27;2.08;;;30.00;52.20;;;;;;1867112;77;21079;-67
2022/07/12 14:46:13;;;;;;;3.02;2.20;;;29.90;52.80;;;;;;1867043;77;21039;-67
2022/07/12 14:48:43;;;;;;;3.37;2.00;;;30.00;52.80;;;;;;1867020;77;21063;-67
2022/07/12 14:51:12;;;;;;;2.40;2.00;;;29.90;52.70;;;;;;1867035;77;21039;-67
2022/07/12 14:53:41;;;;;;;2.40;1.70;;;29.90;52.00;;;;;;1867070;77;21007;-67
2022/07/12 14:56:11;;;;;;;4.05;2.20;;;29.90;52.10;;;;;;1867161;76;21070;-67
2022/07/12 14:58:40;;;;;;;3.95;1.90;;;29.80;52.10;;;;;;1867039;77;21118;-66
2022/07/12 15:01:09;;;;;;;4.05;2.00;;;29.80;51.90;;;;;;1867041;77;21047;-67
2022/07/12 15:03:39;;;;;;;3.37;2.12;;;29.80;51.80;;;;;;1867034;77;21071;-67
2022/07/12 15:06:09;;;;;;;2.90;2.08;;;29.80;51.90;;;;;;1867113;77;21051;-67
2022/07/12 15:08:38;;;;;;;1.80;1.70;;;29.70;52.10;;;;;;1867092;77;21027;-66
2022/07/12 15:11:07;;;;;;;2.80;2.10;;;29.70;52.10;;;;;;1866992;77;21086;-66
2022/07/12 15:13:37;;;;;;;3.72;2.08;;;29.60;51.80;;;;;;1873789;76;21072;-66
2022/07/12 15:16:06;;;;;;;2.87;1.95;;;29.50;51.90;;;;;;1878613;76;21540;-67
2022/07/12 15:18:36;;;;;;;4.53;1.90;;;29.40;52.70;;;;;;1878426;76;21094;-66
2022/07/12 15:21:06;;;;;;;2.08;1.77;;;29.40;52.40;;;;;;1878673;76;21020;-66
2022/07/12 15:23:35;;;;;;;4.40;1.85;;;29.40;52.40;;;;;;1878523;76;21031;-66
2022/07/12 15:26:05;;;;;;;3.27;2.20;;;29.30;52.40;;;;;;1878650;76;21032;-66
2022/07/12 15:28:35;;;;;;;2.45;1.95;;;29.30;52.90;;;;;;1878620;76;21090;-66